createdAt,value
2019-04-06T00:03:12.187Z,4.74
2019-04-06T00:08:15.526Z,4.66
2019-04-06T00:13:18.542Z,4.98
2019-04-06T00:18:21.862Z,4.96
2019-04-06T00:23:25.003Z,4.66
2019-04-06T00:28:28.242Z,6.28
2019-04-06T00:33:31.386Z,6.26
2019-04-06T00:38:35.958Z,6.09
2019-04-06T00:43:38.897Z,5.68
2019-04-06T00:48:42.061Z,5.71
2019-04-06T00:53:45.367Z,5.74
2019-04-06T00:58:48.313Z,4.99
2019-04-06T01:03:51.551Z,6.29
2019-04-06T01:08:54.685Z,5.79
2019-04-06T01:13:57.782Z,5.62
2019-04-06T01:19:01.185Z,6.04
2019-04-06T01:24:04.507Z,6.28
2019-04-06T01:29:07.709Z,6.08
2019-04-06T01:34:10.996Z,6.60
2019-04-06T01:39:14.225Z,5.76
2019-04-06T01:44:17.314Z,6.88
2019-04-06T01:49:20.951Z,5.71
2019-04-06T01:54:24.164Z,5.13
2019-04-06T01:59:27.441Z,6.61
2019-04-06T02:04:30.692Z,6.65
2019-04-06T02:09:33.814Z,6.16
2019-04-06T02:14:36.940Z,4.93
2019-04-06T02:19:39.917Z,5.42
2019-04-06T02:24:43.469Z,5.72
2019-04-06T02:29:46.638Z,7.08
2019-04-06T02:34:49.748Z,5.62
2019-04-06T02:39:52.872Z,5.10
2019-04-06T02:44:56.113Z,4.94
2019-04-06T02:49:59.247Z,5.64
2019-04-06T02:55:02.343Z,6.65
2019-04-06T03:00:05.500Z,5.48
2019-04-06T03:05:08.592Z,5.78
2019-04-06T03:10:11.544Z,6.30
2019-04-06T03:15:14.757Z,6.09
2019-04-06T03:20:17.727Z,5.71
2019-04-06T03:25:20.880Z,6.55
2019-04-06T03:30:23.991Z,6.17
2019-04-06T03:35:27.518Z,6.81
2019-04-06T03:40:30.176Z,5.67
2019-04-06T03:45:33.310Z,7.90
2019-04-06T03:50:36.389Z,7.30
2019-04-06T03:55:39.652Z,5.95
2019-04-06T04:00:42.834Z,5.74
2019-04-06T04:05:46.396Z,6.59
2019-04-06T04:10:49.593Z,5.70
2019-04-06T04:15:55.932Z,6.12
2019-04-06T04:20:55.404Z,5.59
2019-04-06T04:25:59.107Z,6.63
2019-04-06T04:31:02.192Z,5.33
2019-04-06T04:36:05.312Z,6.62
2019-04-06T04:41:08.786Z,5.74
2019-04-06T04:46:11.883Z,5.95
2019-04-06T04:51:15.002Z,7.08
2019-04-06T04:56:18.347Z,6.20
2019-04-06T05:01:22.703Z,5.65
2019-04-06T05:06:25.716Z,6.54
2019-04-06T05:11:28.780Z,6.91
2019-04-06T05:16:32.096Z,6.56
2019-04-06T05:21:35.539Z,7.90
2019-04-06T05:26:38.743Z,7.69
2019-04-06T05:31:42.283Z,6.48
2019-04-06T05:36:45.564Z,6.32
2019-04-06T05:41:50.453Z,6.49
2019-04-06T05:46:51.363Z,6.62
2019-04-06T05:51:55.302Z,6.16
2019-04-06T05:56:58.542Z,5.84
2019-04-06T06:02:02.328Z,7.37
2019-04-06T06:07:05.764Z,7.14
2019-04-06T06:12:09.286Z,7.64
2019-04-06T06:17:14.279Z,5.86
2019-04-06T06:22:15.555Z,7.28
2019-04-06T06:27:18.828Z,7.82
2019-04-06T06:32:22.685Z,7.65
2019-04-06T06:37:25.929Z,7.87
2019-04-06T06:42:29.507Z,7.67
2019-04-06T06:47:32.751Z,6.18
2019-04-06T06:52:36.207Z,8.52
2019-04-06T06:57:40.408Z,7.54
2019-04-06T07:02:43.549Z,7.27
2019-04-06T07:07:47.185Z,7.23
2019-04-06T07:12:50.586Z,8.39
2019-04-06T07:17:53.902Z,7.47
2019-04-06T07:22:57.080Z,8.21
2019-04-06T07:28:00.243Z,8.64
2019-04-06T07:33:02.157Z,7.35
2019-04-06T07:38:04.572Z,8.65
2019-04-06T07:43:07.997Z,8.90
2019-04-06T07:48:11.181Z,8.96
2019-04-06T07:53:14.456Z,9.48
2019-04-06T07:58:17.725Z,9.47
2019-04-06T08:03:20.997Z,9.27
2019-04-06T08:08:24.259Z,7.73
2019-04-06T08:13:27.453Z,7.46
2019-04-06T08:18:30.547Z,7.22
2019-04-06T08:23:33.825Z,10.47
2019-04-06T08:28:37.191Z,10.05
2019-04-06T08:33:40.424Z,9.86
2019-04-06T08:38:43.682Z,11.17
2019-04-06T08:43:46.991Z,9.71
2019-04-06T08:48:50.367Z,10.42
2019-04-06T08:53:54.155Z,10.02
2019-04-06T08:58:57.487Z,9.97
2019-04-06T09:04:01.166Z,9.79
2019-04-06T09:09:04.364Z,8.45
2019-04-06T09:14:07.492Z,11.03
2019-04-06T09:19:10.912Z,9.47
2019-04-06T09:24:14.436Z,6.99
2019-04-06T09:29:23.609Z,9.86
2019-04-06T09:34:20.990Z,9.01
2019-04-06T09:39:24.291Z,8.45
2019-04-06T09:44:27.519Z,11.00
2019-04-06T09:49:30.646Z,8.01
2019-04-06T09:54:33.959Z,8.09
2019-04-06T09:59:37.611Z,8.05
2019-04-06T10:04:40.117Z,8.82
2019-04-06T10:09:43.386Z,9.50
2019-04-06T10:14:46.631Z,9.77
2019-04-06T10:19:50.026Z,9.12
2019-04-06T10:24:53.276Z,10.80
2019-04-06T10:29:56.437Z,12.29
2019-04-06T10:34:59.781Z,11.27
2019-04-06T10:40:03.040Z,12.34
2019-04-06T10:45:06.120Z,10.71
2019-04-06T10:50:09.461Z,14.24
2019-04-06T10:55:12.700Z,12.40
2019-04-06T11:00:15.994Z,11.89
2019-04-06T11:05:19.453Z,11.69
2019-04-06T11:10:22.663Z,12.01
2019-04-06T11:15:25.865Z,10.81
2019-04-06T11:20:29.224Z,11.11
2019-04-06T11:25:32.457Z,11.37
2019-04-06T11:30:35.666Z,9.42
2019-04-06T11:35:39.104Z,9.18
2019-04-06T11:40:42.415Z,10.70
2019-04-06T11:45:45.686Z,11.80
2019-04-06T11:50:48.737Z,9.55
2019-04-06T11:55:51.970Z,9.81
2019-04-06T12:00:55.397Z,11.24
2019-04-06T12:05:58.851Z,11.31
2019-04-06T12:11:01.909Z,10.99
2019-04-06T12:16:05.138Z,10.58
2019-04-06T12:21:08.576Z,10.52
2019-04-06T12:26:11.944Z,11.79
2019-04-06T12:31:15.566Z,11.28
2019-04-06T12:36:19.018Z,11.93
2019-04-06T12:41:22.682Z,13.53
2019-04-06T12:46:25.573Z,12.50
2019-04-06T12:51:28.834Z,15.12
2019-04-06T12:56:32.245Z,16.40
2019-04-06T13:01:35.255Z,13.72
2019-04-06T13:06:38.501Z,13.12
2019-04-06T13:11:42.158Z,12.53
2019-04-06T13:16:44.970Z,13.82
2019-04-06T13:21:48.489Z,12.56
2019-04-06T13:26:52.039Z,12.58
2019-04-06T13:31:55.366Z,13.54
2019-04-06T13:36:58.832Z,12.47
2019-04-06T13:42:02.293Z,12.01
2019-04-06T13:47:05.173Z,15.74
2019-04-06T13:52:08.662Z,12.02
2019-04-06T13:57:10.953Z,13.47
2019-04-06T14:02:14.244Z,14.66
2019-04-06T14:07:17.585Z,13.08
2019-04-06T14:12:20.841Z,13.85
2019-04-06T14:17:23.840Z,15.80
2019-04-06T14:22:27.379Z,14.86
2019-04-06T14:27:30.566Z,11.97
2019-04-06T14:32:34.328Z,12.20
2019-04-06T14:37:36.511Z,13.71
2019-04-06T14:42:38.404Z,15.46
2019-04-06T14:47:41.750Z,14.05
2019-04-06T14:52:45.717Z,13.65
2019-04-06T14:57:49.372Z,12.64
2019-04-06T15:02:52.649Z,13.76
2019-04-06T15:07:57.004Z,15.60
2019-04-06T15:12:59.093Z,11.21
2019-04-06T15:18:00.587Z,11.96
2019-04-06T15:23:03.798Z,15.30
2019-04-06T15:28:06.980Z,16.66
2019-04-06T15:33:10.215Z,13.78
2019-04-06T15:38:13.591Z,18.91
2019-04-06T15:43:18.791Z,14.14
2019-04-06T15:48:19.603Z,13.42
2019-04-06T15:53:22.819Z,14.16
2019-04-06T15:58:26.251Z,11.95
2019-04-06T16:03:29.420Z,14.18
2019-04-06T16:08:33.748Z,22.13
2019-04-06T16:13:37.190Z,15.86
2019-04-06T16:18:40.705Z,15.20
2019-04-06T16:23:44.519Z,15.34
2019-04-06T16:28:47.163Z,16.20
2019-04-06T16:33:50.575Z,14.79
2019-04-06T16:38:53.506Z,19.42
2019-04-06T16:43:57.304Z,18.60
2019-04-06T16:49:00.743Z,20.01
2019-04-06T16:54:03.967Z,16.55
2019-04-06T16:59:07.295Z,14.08
2019-04-06T17:04:10.494Z,12.97
2019-04-06T17:09:14.051Z,17.92
2019-04-06T17:14:16.271Z,20.02
2019-04-06T17:19:19.388Z,14.39
2019-04-06T17:24:22.762Z,10.61
2019-04-06T17:29:25.926Z,12.74
2019-04-06T17:34:29.190Z,11.31
2019-04-06T17:39:32.373Z,18.13
2019-04-06T17:44:35.968Z,14.33
2019-04-06T17:49:39.167Z,15.45
2019-04-06T17:54:42.349Z,12.86
2019-04-06T17:59:44.984Z,13.01
2019-04-06T18:04:49.015Z,18.39
2019-04-06T18:09:52.780Z,14.76
2019-04-06T18:14:55.905Z,14.69
2019-04-06T18:19:59.499Z,15.51
2019-04-06T18:25:02.367Z,18.52
2019-04-06T18:30:05.623Z,17.68
2019-04-06T18:35:09.755Z,16.55
2019-04-06T18:40:12.941Z,16.66
2019-04-06T18:45:16.605Z,25.63
2019-04-06T18:50:19.649Z,19.48
2019-04-06T18:55:23.288Z,20.19
2019-04-06T19:00:26.407Z,15.30
2019-04-06T19:05:28.632Z,13.59
2019-04-06T19:10:31.739Z,14.27
2019-04-06T19:15:34.968Z,17.18
2019-04-06T19:20:37.893Z,18.38
2019-04-06T19:25:41.118Z,21.21
2019-04-06T19:30:44.523Z,18.18
2019-04-06T19:35:48.344Z,21.13
2019-04-06T19:40:50.866Z,18.94
2019-04-06T19:45:54.151Z,19.80
2019-04-06T19:50:57.887Z,17.91
2019-04-06T19:56:02.112Z,21.02
2019-04-06T20:01:05.174Z,19.92
2019-04-06T20:06:08.902Z,16.81
2019-04-06T20:11:11.947Z,16.53
2019-04-06T20:16:15.407Z,15.64
2019-04-06T20:21:17.457Z,15.40
2019-04-06T20:26:20.664Z,15.48
2019-04-06T20:31:24.029Z,15.24
2019-04-06T20:36:26.285Z,17.22
2019-04-06T20:41:29.403Z,14.65
2019-04-06T20:46:32.929Z,13.52
2019-04-06T20:51:35.309Z,14.22
2019-04-06T20:56:39.466Z,13.80
2019-04-06T21:01:43.260Z,13.75
2019-04-06T21:06:46.444Z,14.81
2019-04-06T21:11:49.678Z,14.32
2019-04-06T21:16:53.421Z,13.75
2019-04-06T21:21:58.737Z,13.82
2019-04-06T21:26:59.692Z,12.02
2019-04-06T21:32:02.872Z,13.77
2019-04-06T21:37:06.887Z,13.50
2019-04-06T21:42:10.635Z,13.24
2019-04-06T21:47:13.064Z,13.25
2019-04-06T21:52:16.070Z,13.43
2019-04-06T21:57:19.760Z,12.74
2019-04-06T22:02:22.038Z,13.52
2019-04-06T22:07:25.468Z,11.83
2019-04-06T22:12:28.496Z,12.42
2019-04-06T22:17:34.254Z,12.73
2019-04-06T22:22:35.434Z,13.30
2019-04-06T22:27:38.073Z,14.35
2019-04-06T22:32:42.146Z,13.95
2019-04-06T22:37:45.467Z,15.01
2019-04-06T22:42:48.675Z,13.37
2019-04-06T22:47:53.106Z,14.11
2019-04-06T22:52:56.111Z,13.52
2019-04-06T22:57:58.176Z,13.40
2019-04-06T23:03:00.437Z,13.60
2019-04-06T23:08:04.309Z,12.64
2019-04-06T23:13:05.930Z,14.02
2019-04-06T23:18:08.935Z,14.19
2019-04-06T23:23:11.914Z,12.89
2019-04-06T23:28:14.828Z,13.49
2019-04-06T23:33:18.639Z,14.83
2019-04-06T23:38:21.724Z,14.73
2019-04-06T23:43:24.289Z,14.61
2019-04-06T23:48:27.102Z,14.22
2019-04-06T23:53:30.461Z,14.12
2019-04-06T23:58:32.531Z,13.30
